Time;durP1;ratioP1;P1;durP2;ratioP2;P2;SDS_P1;SDS_P2;PMS_P1;PMS_P2;Temp;Humidity;BMP_temperature;BMP_pressure;BME280_temperature;BME280_humidity;BME280_pressure;Samples;Min_cycle;Max_cycle;Signal;HPM_P1;HPM_P2
2023/06/26 00:01:12;;;;;;;;;;;23.30;99.90;;;;;;5022999;28;20300;-65
2023/06/26 00:03:38;;;;;;;;;;;23.30;99.90;;;;;;5019248;28;20314;-65
2023/06/26 00:06:03;;;;;;;;;;;23.20;99.90;;;;;;5017038;28;20284;-65
2023/06/26 00:08:29;;;;;;;;;;;23.20;99.90;;;;;;5020584;28;19905;-83
2023/06/26 00:10:57;;;;;;;;;;;23.20;99.90;;;;;;5019417;28;19909;-66
2023/06/26 00:13:25;;;;;;;;;;;23.20;99.90;;;;;;5017165;28;20354;-65
2023/06/26 00:15:51;;;;;;;;;;;23.20;99.90;;;;;;4993719;28;19925;-66
2023/06/26 00:18:16;;;;;;;;;;;23.20;99.90;;;;;;5012702;28;19914;-66
2023/06/26 00:20:42;;;;;;;;;;;23.20;99.90;;;;;;5014794;28;19914;-66
2023/06/26 00:23:07;;;;;;;;;;;23.20;99.90;;;;;;5015332;28;19916;-65
2023/06/26 00:25:33;;;;;;;;;;;23.20;99.90;;;;;;5014568;28;19909;-85
2023/06/26 00:27:59;;;;;;;;;;;23.20;99.90;;;;;;5014903;28;19909;-65
2023/06/26 00:30:24;;;;;;;;;;;23.20;99.90;;;;;;4997725;28;20351;-65
2023/06/26 00:32:51;;;;;;;;;;;23.30;99.90;;;;;;5014568;28;19956;-65
2023/06/26 00:35:16;;;;;;;;;;;23.20;99.90;;;;;;5014799;28;19924;-66
2023/06/26 00:37:42;;;;;;;;;;;23.10;99.90;;;;;;5015497;28;20248;-66
2023/06/26 00:40:08;;;;;;;;;;;23.00;99.90;;;;;;4999052;28;19913;-65
2023/06/26 00:42:34;;;;;;;;;;;22.80;99.90;;;;;;5011301;28;19914;-65
2023/06/26 00:45:00;;;;;;;;;;;22.70;99.90;;;;;;5014467;28;20229;-66
2023/06/26 00:47:25;;;;;;;;;;;22.60;99.90;;;;;;5014805;28;19916;-65
2023/06/26 00:49:51;;;;;;;;;;;22.50;99.90;;;;;;5014214;28;19920;-65
2023/06/26 00:52:17;;;;;;;;;;;22.50;99.90;;;;;;5012193;28;20002;-66
2023/06/26 00:54:43;;;;;;;;;;;22.50;99.90;;;;;;5013859;28;19996;-66
2023/06/26 00:57:08;;;;;;;;;;;22.50;99.90;;;;;;5014525;28;20035;-66
2023/06/26 00:59:34;;;;;;;;;;;22.60;99.90;;;;;;5014416;28;19940;-65
2023/06/26 01:02:00;;;;;;;;;;;22.60;99.90;;;;;;5014637;28;19909;-66
2023/06/26 01:04:32;;;;;;;;;;;22.60;99.90;;;;;;5014653;28;19914;-65
2023/06/26 01:06:58;;;;;;;;;;;22.60;99.90;;;;;;4996334;28;19913;-65
2023/06/26 01:09:24;;;;;;;;;;;22.60;99.90;;;;;;5014623;28;19917;-77
2023/06/26 01:11:50;;;;;;;;;;;22.60;99.90;;;;;;5014913;28;20333;-63
2023/06/26 01:14:15;;;;;;;;;;;22.60;99.90;;;;;;5011110;28;20011;-64
2023/06/26 01:16:47;;;;;;;;;;;22.60;99.90;;;;;;5014426;28;19917;-65
2023/06/26 01:19:26;;;;;;;;;;;22.50;99.90;;;;;;5014264;28;19916;-64
2023/06/26 01:21:57;;;;;;;;;;;22.50;99.90;;;;;;4997449;28;20320;-65
2023/06/26 01:24:27;;;;;;;;;;;22.50;99.90;;;;;;5009260;28;19928;-81
2023/06/26 01:26:53;;;;;;;;;;;22.40;99.90;;;;;;5014917;28;19906;-65
2023/06/26 01:29:19;;;;;;;;;;;22.30;99.90;;;;;;5014673;28;19909;-65
2023/06/26 01:31:49;;;;;;;;;;;22.30;99.90;;;;;;5014404;28;19932;-73
2023/06/26 01:34:15;;;;;;;;;;;22.30;99.90;;;;;;5014788;28;19906;-65
2023/06/26 01:36:41;;;;;;;;;;;22.20;99.90;;;;;;5014476;28;19917;-64
2023/06/26 01:39:08;;;;;;;;;;;22.10;99.90;;;;;;5014617;28;19913;-64
2023/06/26 01:41:34;;;;;;;;;;;22.10;99.90;;;;;;5013824;28;19944;-64
2023/06/26 01:44:03;;;;;;;;;;;22.00;99.90;;;;;;5014476;28;19952;-64
2023/06/26 01:46:32;;;;;;;;;;;21.90;99.90;;;;;;5014373;28;20212;-65
2023/06/26 01:49:03;;;;;;;;;;;21.90;99.90;;;;;;5012909;28;19953;-66
2023/06/26 01:51:30;;;;;;;;;;;21.80;99.90;;;;;;5011255;28;19917;-64
2023/06/26 01:53:57;;;;;;;;;;;21.70;99.90;;;;;;5013694;28;19980;-65
2023/06/26 01:56:23;;;;;;;;;;;21.70;99.90;;;;;;5013136;28;19949;-76
2023/06/26 01:58:49;;;;;;;;;;;21.60;99.90;;;;;;5014052;28;19929;-65
2023/06/26 02:01:15;;;;;;;;;;;21.60;99.90;;;;;;5013863;28;19919;-65
2023/06/26 02:03:41;;;;;;;;;;;21.60;99.90;;;;;;5014818;28;19913;-65
2023/06/26 02:06:06;;;;;;;;;;;21.50;99.90;;;;;;5017781;28;19917;-70
2023/06/26 02:08:32;;;;;;;;;;;21.40;99.90;;;;;;5016573;28;19910;-65
2023/06/26 02:10:57;;;;;;;;;;;21.30;99.90;;;;;;5017328;28;20220;-65
2023/06/26 02:13:23;;;;;;;;;;;21.30;99.90;;;;;;5016697;28;20352;-64
2023/06/26 02:15:48;;;;;;;;;;;21.20;99.90;;;;;;5016748;28;19949;-65
2023/06/26 02:18:14;;;;;;;;;;;21.20;99.90;;;;;;5017007;28;20308;-65
2023/06/26 02:20:39;;;;;;;;;;;21.20;99.90;;;;;;5016740;28;19917;-65
2023/06/26 02:23:05;;;;;;;;;;;21.10;99.90;;;;;;5017178;28;19920;-64
2023/06/26 02:25:31;;;;;;;;;;;21.10;99.90;;;;;;5016482;28;19913;-64
2023/06/26 02:27:56;;;;;;;;;;;21.10;99.90;;;;;;5016310;28;19913;-65
2023/06/26 02:30:22;;;;;;;;;;;21.10;99.90;;;;;;5016416;28;19952;-64
2023/06/26 02:32:47;;;;;;;;;;;21.10;99.90;;;;;;5015738;28;19916;-66
2023/06/26 02:35:13;;;;;;;;;;;21.00;99.90;;;;;;5017226;28;19916;-64
2023/06/26 02:37:38;;;;;;;;;;;21.00;99.90;;;;;;5015658;28;19997;-64
2023/06/26 02:40:05;;;;;;;;;;;21.00;99.90;;;;;;5017522;28;19917;-65
2023/06/26 02:42:31;;;;;;;;;;;21.00;99.90;;;;;;4995484;28;19913;-64
2023/06/26 02:44:57;;;;;;;;;;;20.90;99.90;;;;;;5016674;28;19961;-64
2023/06/26 02:47:22;;;;;;;;;;;20.90;99.90;;;;;;5017384;28;20023;-64
2023/06/26 02:49:48;;;;;;;;;;;20.90;99.90;;;;;;5016093;28;19996;-66
2023/06/26 02:52:13;;;;;;;;;;;20.80;99.90;;;;;;5010343;28;19916;-65
2023/06/26 02:54:39;;;;;;;;;;;20.80;99.90;;;;;;5010626;28;19909;-65
2023/06/26 02:57:04;;;;;;;;;;;20.80;99.90;;;;;;5016866;28;19912;-64
2023/06/26 02:59:30;;;;;;;;;;;20.80;99.90;;;;;;5016982;28;19905;-64
2023/06/26 03:01:55;;;;;;;;;;;20.70;99.90;;;;;;5016908;28;19917;-65
2023/06/26 03:04:21;;;;;;;;;;;20.70;99.90;;;;;;5017109;28;19911;-65
2023/06/26 03:06:47;;;;;;;;;;;20.60;99.90;;;;;;5015933;28;19905;-67
2023/06/26 03:09:12;;;;;;;;;;;20.60;99.90;;;;;;5016753;28;19996;-64
2023/06/26 03:11:38;;;;;;;;;;;20.50;99.90;;;;;;5016602;28;19909;-64
2023/06/26 03:14:04;;;;;;;;;;;20.50;99.90;;;;;;5016637;28;19941;-65
2023/06/26 03:16:29;;;;;;;;;;;20.50;99.90;;;;;;5015341;28;19905;-65
2023/06/26 03:18:55;;;;;;;;;;;20.40;99.90;;;;;;5015507;28;19917;-65
2023/06/26 03:21:22;;;;;;;;;;;20.40;99.90;;;;;;5016114;28;19913;-65
2023/06/26 03:23:48;;;;;;;;;;;20.40;99.90;;;;;;5012418;28;19941;-65
2023/06/26 03:26:14;;;;;;;;;;;20.40;99.90;;;;;;5015854;28;19948;-65
2023/06/26 03:28:40;;;;;;;;;;;20.30;99.90;;;;;;5016019;28;19906;-65
2023/06/26 03:31:05;;;;;;;;;;;20.30;99.90;;;;;;5015468;28;19909;-64
2023/06/26 03:33:31;;;;;;;;;;;20.30;99.90;;;;;;5016275;28;19959;-76
2023/06/26 03:35:56;;;;;;;;;;;20.30;99.90;;;;;;5016234;28;20314;-65
2023/06/26 03:38:23;;;;;;;;;;;20.30;99.90;;;;;;5016470;28;20320;-65
2023/06/26 03:40:49;;;;;;;;;;;20.30;99.90;;;;;;5016067;28;19999;-64
2023/06/26 03:43:15;;;;;;;;;;;20.30;99.90;;;;;;5015846;28;19964;-80
2023/06/26 03:45:40;;;;;;;;;;;20.30;99.90;;;;;;5015002;28;20008;-65
2023/06/26 03:48:07;;;;;;;;;;;20.20;99.90;;;;;;5015902;28;19913;-65
2023/06/26 03:50:33;;;;;;;;;;;20.20;99.90;;;;;;5015725;28;19913;-80
2023/06/26 03:52:59;;;;;;;;;;;20.10;99.90;;;;;;5015300;28;19905;-63
2023/06/26 03:55:24;;;;;;;;;;;20.10;99.90;;;;;;5015600;28;19905;-65
2023/06/26 03:57:50;;;;;;;;;;;20.10;99.90;;;;;;5015357;28;19913;-64
2023/06/26 04:00:16;;;;;;;;;;;20.00;99.90;;;;;;5014006;28;19917;-77
2023/06/26 04:02:41;;;;;;;;;;;20.10;99.90;;;;;;5010033;28;19921;-64
2023/06/26 04:05:07;;;;;;;;;;;20.00;99.90;;;;;;5015543;28;19961;-64
2023/06/26 04:07:33;;;;;;;;;;;20.10;99.90;;;;;;5014770;28;19909;-64
2023/06/26 04:09:58;;;;;;;;;;;20.00;99.90;;;;;;5015002;28;19909;-64
2023/06/26 04:12:24;;;;;;;;;;;20.00;99.90;;;;;;5014717;28;19909;-65
2023/06/26 04:14:49;;;;;;;;;;;20.00;99.90;;;;;;5015172;28;19916;-64
2023/06/26 04:17:15;;;;;;;;;;;20.10;99.90;;;;;;5015446;28;19909;-65
2023/06/26 04:19:40;;;;;;;;;;;20.10;99.90;;;;;;5015494;28;19945;-65
2023/06/26 04:22:06;;;;;;;;;;;20.10;99.90;;;;;;5015144;28;20000;-64
2023/06/26 04:24:31;;;;;;;;;;;20.10;99.90;;;;;;5015491;28;19910;-65
2023/06/26 04:26:57;;;;;;;;;;;20.00;99.90;;;;;;5014072;28;19909;-66
2023/06/26 04:29:25;;;;;;;;;;;20.00;99.90;;;;;;5015032;28;19917;-64
2023/06/26 04:31:51;;;;;;;;;;;20.00;99.90;;;;;;5015262;28;20012;-64
2023/06/26 04:34:16;;;;;;;;;;;19.90;99.90;;;;;;5015503;28;19966;-72
2023/06/26 04:36:47;;;;;;;;;;;19.90;99.90;;;;;;5015199;28;19928;-65
2023/06/26 04:39:14;;;;;;;;;;;19.90;99.90;;;;;;5015480;28;20225;-78
2023/06/26 04:41:40;;;;;;;;;;;19.90;99.90;;;;;;5014234;28;19921;-64
2023/06/26 04:44:05;;;;;;;;;;;20.00;99.90;;;;;;5015321;28;19933;-65
2023/06/26 04:46:31;;;;;;;;;;;20.00;99.90;;;;;;5015156;28;19995;-63
2023/06/26 04:48:57;;;;;;;;;;;20.00;99.90;;;;;;5013777;28;19920;-64
2023/06/26 04:51:26;;;;;;;;;;;20.00;99.90;;;;;;5012930;28;19952;-64
2023/06/26 04:53:52;;;;;;;;;;;20.00;99.90;;;;;;5014854;28;19913;-64
2023/06/26 04:56:18;;;;;;;;;;;19.90;99.90;;;;;;5015304;28;19956;-64
2023/06/26 04:58:43;;;;;;;;;;;20.00;99.90;;;;;;5014845;28;20004;-64
2023/06/26 05:01:10;;;;;;;;;;;20.00;99.90;;;;;;5013986;28;19913;-64
2023/06/26 05:03:36;;;;;;;;;;;20.10;99.90;;;;;;5014213;28;19910;-64
2023/06/26 05:06:02;;;;;;;;;;;20.20;99.90;;;;;;5012620;28;19935;-82
2023/06/26 05:08:27;;;;;;;;;;;20.20;99.90;;;;;;5014214;28;19979;-64
2023/06/26 05:10:57;;;;;;;;;;;20.10;99.90;;;;;;5014429;28;19916;-63
2023/06/26 05:13:23;;;;;;;;;;;20.10;99.90;;;;;;5015028;28;19906;-64
2023/06/26 05:15:49;;;;;;;;;;;20.10;99.90;;;;;;5015543;28;19941;-63
2023/06/26 05:18:15;;;;;;;;;;;20.20;99.90;;;;;;5014925;28;20233;-77
2023/06/26 05:20:40;;;;;;;;;;;20.20;99.90;;;;;;4997511;28;20483;-64
2023/06/26 05:23:06;;;;;;;;;;;20.20;99.90;;;;;;5014810;28;19992;-64
2023/06/26 05:25:33;;;;;;;;;;;20.20;99.90;;;;;;5015150;28;20196;-64
2023/06/26 05:27:59;;;;;;;;;;;20.30;99.90;;;;;;5014869;28;20351;-64
2023/06/26 05:30:25;;;;;;;;;;;20.30;99.90;;;;;;5013954;28;20012;-63
2023/06/26 05:32:52;;;;;;;;;;;20.30;99.90;;;;;;5014337;28;20418;-64
2023/06/26 05:35:17;;;;;;;;;;;20.30;99.90;;;;;;5014146;28;19913;-66
2023/06/26 05:37:43;;;;;;;;;;;20.30;99.90;;;;;;5014434;28;19912;-64
2023/06/26 05:40:11;;;;;;;;;;;20.30;99.90;;;;;;5017959;28;19912;-62
2023/06/26 05:42:37;;;;;;;;;;;20.30;99.90;;;;;;5018345;28;19913;-63
2023/06/26 05:45:03;;;;;;;;;;;20.20;99.90;;;;;;5018085;28;19924;-64
2023/06/26 05:47:28;;;;;;;;;;;20.20;99.90;;;;;;5017401;28;19910;-64
2023/06/26 05:49:54;;;;;;;;;;;20.20;99.90;;;;;;5018190;28;20060;-66
2023/06/26 05:52:19;;;;;;;;;;;20.10;99.90;;;;;;5017917;28;20295;-77
2023/06/26 05:54:45;;;;;;;;;;;20.10;99.90;;;;;;5018102;28;19959;-65
2023/06/26 05:57:12;;;;;;;;;;;20.20;99.90;;;;;;5020018;28;19920;-78
2023/06/26 05:59:39;;;;;;;;;;;20.20;99.90;;;;;;5002366;28;19960;-65
2023/06/26 06:02:05;;;;;;;;;;;20.20;99.90;;;;;;5017572;28;19916;-64
2023/06/26 06:04:30;;;;;;;;;;;20.20;99.90;;;;;;5017821;28;19913;-62
2023/06/26 06:06:56;;;;;;;;;;;20.10;99.90;;;;;;5018102;28;19988;-63
2023/06/26 06:09:24;;;;;;;;;;;20.10;99.90;;;;;;5017863;28;19968;-80
2023/06/26 06:11:50;;;;;;;;;;;20.20;99.90;;;;;;5016552;28;19905;-63
2023/06/26 06:14:15;;;;;;;;;;;20.20;99.90;;;;;;5014245;28;19932;-64
2023/06/26 06:16:41;;;;;;;;;;;20.30;99.90;;;;;;5017440;28;19917;-63
2023/06/26 06:19:07;;;;;;;;;;;20.30;99.90;;;;;;5017706;28;19917;-83
2023/06/26 06:21:33;;;;;;;;;;;20.40;99.90;;;;;;5017474;28;19953;-81
2023/06/26 06:23:58;;;;;;;;;;;20.40;99.90;;;;;;5018019;28;19944;-64
2023/06/26 06:26:24;;;;;;;;;;;20.40;99.90;;;;;;5017479;28;19906;-84
2023/06/26 06:28:49;;;;;;;;;;;20.30;99.90;;;;;;5017460;28;19920;-63
2023/06/26 06:31:15;;;;;;;;;;;20.30;99.90;;;;;;5014256;28;20248;-64
2023/06/26 06:33:40;;;;;;;;;;;20.30;99.90;;;;;;5017691;28;19932;-65
2023/06/26 06:36:06;;;;;;;;;;;20.40;99.90;;;;;;5017767;28;20220;-84
2023/06/26 06:38:32;;;;;;;;;;;20.40;99.90;;;;;;5017287;28;20201;-63
2023/06/26 06:40:57;;;;;;;;;;;20.50;99.90;;;;;;5017448;28;20311;-65
2023/06/26 06:43:23;;;;;;;;;;;20.50;99.90;;;;;;5017434;28;19913;-66
2023/06/26 06:45:48;;;;;;;;;;;20.50;99.90;;;;;;5018874;28;19906;-65
2023/06/26 06:48:14;;;;;;;;;;;20.50;99.90;;;;;;4998971;28;19913;-63
2023/06/26 06:50:40;;;;;;;;;;;20.40;99.90;;;;;;5016488;28;19996;-65
2023/06/26 06:53:05;;;;;;;;;;;20.50;99.90;;;;;;5013124;28;19914;-64
2023/06/26 06:55:31;;;;;;;;;;;20.50;99.90;;;;;;5016824;28;20323;-65
2023/06/26 06:57:56;;;;;;;;;;;20.60;99.90;;;;;;5017544;28;20004;-77
2023/06/26 07:00:22;;;;;;;;;;;20.50;99.90;;;;;;4999509;28;20208;-64
2023/06/26 07:02:47;;;;;;;;;;;20.50;99.90;;;;;;5016550;28;19917;-65
2023/06/26 07:05:13;;;;;;;;;;;20.60;99.90;;;;;;5016810;28;19996;-63
2023/06/26 07:07:39;;;;;;;;;;;20.60;99.90;;;;;;5016809;28;20189;-64
2023/06/26 07:10:08;;;;;;;;;;;20.70;99.90;;;;;;5020175;28;19916;-64
2023/06/26 07:12:34;;;;;;;;;;;20.60;99.90;;;;;;5017044;28;19913;-65
2023/06/26 07:15:00;;;;;;;;;;;20.70;99.90;;;;;;5020101;28;19905;-65
2023/06/26 07:17:26;;;;;;;;;;;20.70;99.90;;;;;;5015224;28;19909;-64
2023/06/26 07:19:51;;;;;;;;;;;20.80;99.90;;;;;;5016574;28;19910;-64
2023/06/26 07:22:20;;;;;;;;;;;20.90;99.90;;;;;;5012957;28;19914;-65
2023/06/26 07:24:45;;;;;;;;;;;21.00;99.90;;;;;;5015989;28;19913;-64
2023/06/26 07:27:11;;;;;;;;;;;21.00;99.90;;;;;;5016767;28;19916;-64
2023/06/26 07:29:36;;;;;;;;;;;20.90;99.90;;;;;;5016644;28;19909;-64
2023/06/26 07:32:02;;;;;;;;;;;20.90;99.90;;;;;;4999003;28;19912;-65
2023/06/26 07:34:28;;;;;;;;;;;20.90;99.90;;;;;;5016598;28;19905;-64
2023/06/26 07:36:53;;;;;;;;;;;21.00;99.90;;;;;;5016353;28;19909;-64
2023/06/26 07:39:19;;;;;;;;;;;21.00;99.90;;;;;;5015439;28;19905;-76
2023/06/26 07:41:44;;;;;;;;;;;21.10;99.90;;;;;;5016373;28;19910;-64
2023/06/26 07:44:10;;;;;;;;;;;21.20;99.90;;;;;;5015985;28;19917;-70
2023/06/26 07:46:35;;;;;;;;;;;21.40;99.90;;;;;;5016056;28;20220;-77
2023/06/26 07:49:01;;;;;;;;;;;21.50;99.90;;;;;;5016219;28;19909;-64
2023/06/26 07:51:27;;;;;;;;;;;21.60;99.90;;;;;;5016439;28;19910;-66
2023/06/26 07:53:52;;;;;;;;;;;21.50;99.90;;;;;;5016061;28;19960;-64
2023/06/26 07:56:18;;;;;;;;;;;21.20;99.90;;;;;;5015704;28;19912;-65
2023/06/26 07:58:43;;;;;;;;;;;21.10;99.90;;;;;;5015650;28;19905;-63
2023/06/26 08:01:09;;;;;;;;;;;21.20;99.90;;;;;;5015451;28;19932;-63
2023/06/26 08:03:34;;;;;;;;;;;21.40;99.90;;;;;;5015551;28;19909;-75
2023/06/26 08:06:00;;;;;;;;;;;21.40;99.90;;;;;;5015533;28;19912;-63
2023/06/26 08:08:25;;;;;;;;;;;21.30;99.90;;;;;;5016163;28;20208;-64
2023/06/26 08:10:51;;;;;;;;;;;21.30;99.90;;;;;;5015824;28;19910;-64
2023/06/26 08:13:16;;;;;;;;;;;21.40;99.90;;;;;;5014029;28;19909;-82
2023/06/26 08:15:42;;;;;;;;;;;21.50;99.90;;;;;;5015023;28;20279;-65
2023/06/26 08:18:07;;;;;;;;;;;21.70;99.90;;;;;;5013914;28;19906;-65
2023/06/26 08:20:35;;;;;;;;;;;21.80;99.90;;;;;;5012951;28;19956;-77
2023/06/26 08:23:01;;;;;;;;;;;21.80;99.90;;;;;;4997093;28;19917;-67
2023/06/26 08:25:26;;;;;;;;;;;22.00;99.90;;;;;;5014765;28;19913;-65
2023/06/26 08:27:53;;;;;;;;;;;22.20;99.90;;;;;;5016008;28;19929;-66
2023/06/26 08:30:19;;;;;;;;;;;22.30;99.90;;;;;;5015774;28;20356;-76
2023/06/26 08:32:44;;;;;;;;;;;22.30;99.90;;;;;;5015322;28;19997;-77
2023/06/26 08:35:10;;;;;;;;;;;22.30;99.90;;;;;;5015529;28;19913;-65
2023/06/26 08:37:36;;;;;;;;;;;22.30;99.90;;;;;;5014807;28;19909;-75
2023/06/26 08:40:01;;;;;;;;;;;22.40;99.90;;;;;;5015759;28;19948;-81
2023/06/26 08:42:27;;;;;;;;;;;22.60;99.90;;;;;;5015456;28;20015;-81
2023/06/26 08:44:53;;;;;;;;;;;22.60;99.90;;;;;;5015475;28;19967;-81
2023/06/26 08:47:19;;;;;;;;;;;22.70;99.90;;;;;;5015205;28;19967;-65
2023/06/26 08:49:45;;;;;;;;;;;22.70;99.90;;;;;;5015487;28;19906;-77
2023/06/26 08:52:13;;;;;;;;;;;22.80;99.90;;;;;;5015983;28;19909;-65
2023/06/26 08:54:42;;;;;;;;;;;22.70;99.90;;;;;;5025915;28;20003;-82
2023/06/26 08:57:08;;;;;;;;;;;22.50;99.90;;;;;;5015175;28;20205;-65
2023/06/26 08:59:34;;;;;;;;;;;22.30;99.90;;;;;;5015080;28;19909;-77
2023/06/26 09:02:00;;;;;;;;;;;22.30;99.90;;;;;;5015590;28;19909;-79
2023/06/26 09:04:25;;;;;;;;;;;22.50;99.90;;;;;;5014551;28;19928;-66
2023/06/26 09:06:51;;;;;;;;;;;22.60;99.90;;;;;;5015187;28;20313;-80
2023/06/26 09:09:16;;;;;;;;;;;22.60;99.90;;;;;;4998004;28;19909;-64
2023/06/26 09:11:42;;;;;;;;;;;22.60;99.90;;;;;;5000988;28;19913;-65
2023/06/26 09:14:10;;;;;;;;;;;22.40;99.90;;;;;;5019312;28;20272;-65
2023/06/26 09:16:42;;;;;;;;;;;22.40;99.90;;;;;;5001401;28;19960;-65
2023/06/26 09:19:11;;;;;;;;;;;22.20;99.90;;;;;;5020126;28;19960;-66
2023/06/26 09:21:41;;;;;;;;;;;22.10;99.90;;;;;;5021051;28;19920;-69
2023/06/26 09:24:07;;;;;;;;;;;22.30;99.90;;;;;;5021669;28;19952;-66
2023/06/26 09:26:34;;;;;;;;;;;22.60;99.90;;;;;;5018763;28;19913;-66
2023/06/26 09:29:00;;;;;;;;;;;22.70;99.90;;;;;;5019045;28;19905;-67
2023/06/26 09:31:26;;;;;;;;;;;22.90;99.90;;;;;;5018620;28;19905;-65
2023/06/26 09:33:57;;;;;;;;;;;23.00;99.90;;;;;;5019434;28;19913;-66
2023/06/26 09:36:23;;;;;;;;;;;22.90;99.90;;;;;;5000876;28;20224;-66
2023/06/26 09:38:48;;;;;;;;;;;22.90;99.90;;;;;;5018133;28;19910;-67
2023/06/26 09:41:17;;;;;;;;;;;23.10;99.90;;;;;;5018446;28;20007;-66
2023/06/26 09:43:46;;;;;;;;;;;22.90;99.90;;;;;;5022010;28;20007;-66
2023/06/26 09:46:28;;;;;;;;;;;22.60;99.90;;;;;;5021759;28;19906;-80
2023/06/26 09:49:03;;;;;;;;;;;22.50;99.90;;;;;;5017231;28;20320;-67
2023/06/26 09:51:30;;;;;;;;;;;22.50;99.90;;;;;;5017861;28;19995;-64
2023/06/26 09:53:55;;;;;;;;;;;22.80;99.90;;;;;;5018438;28;19905;-81
2023/06/26 09:56:21;;;;;;;;;;;23.10;99.90;;;;;;5017293;28;19972;-65
2023/06/26 09:58:47;;;;;;;;;;;23.30;99.90;;;;;;5017922;28;19959;-66
2023/06/26 10:01:12;;;;;;;;;;;23.30;99.90;;;;;;5017669;28;19918;-80
2023/06/26 10:03:38;;;;;;;;;;;23.30;99.90;;;;;;5018351;28;19947;-67
2023/06/26 10:06:04;;;;;;;;;;;23.40;99.90;;;;;;5018023;28;19948;-65
2023/06/26 10:08:29;;;;;;;;;;;23.30;99.90;;;;;;5018392;28;19905;-67
2023/06/26 10:10:56;;;;;;;;;;;23.40;99.90;;;;;;5000826;28;19905;-65
2023/06/26 10:13:24;;;;;;;;;;;23.20;99.90;;;;;;5017920;28;19905;-66
2023/06/26 10:15:51;;;;;;;;;;;23.10;99.90;;;;;;5017980;28;19915;-65
2023/06/26 10:18:17;;;;;;;;;;;23.30;99.90;;;;;;5023729;28;20039;-85
2023/06/26 10:20:46;;;;;;;;;;;23.50;99.90;;;;;;5022591;28;20373;-66
2023/06/26 10:23:13;;;;;;;;;;;23.60;99.90;;;;;;5020710;28;19913;-67
2023/06/26 10:25:40;;;;;;;;;;;23.80;99.90;;;;;;5019012;28;19912;-66
2023/06/26 10:28:08;;;;;;;;;;;23.70;99.90;;;;;;5017548;28;19936;-66
2023/06/26 10:30:35;;;;;;;;;;;23.50;99.90;;;;;;5017892;28;19996;-66
2023/06/26 10:33:02;;;;;;;;;;;23.20;99.90;;;;;;5018024;28;19916;-66
2023/06/26 10:35:27;;;;;;;;;;;23.30;99.90;;;;;;5017448;28;19948;-70
2023/06/26 10:37:59;;;;;;;;;;;23.50;99.90;;;;;;4999383;28;19976;-65
2023/06/26 10:40:27;;;;;;;;;;;23.70;99.90;;;;;;5017355;28;19906;-67
2023/06/26 10:43:09;;;;;;;;;;;23.90;99.90;;;;;;5008259;28;19963;-65
2023/06/26 10:45:36;;;;;;;;;;;24.00;99.90;;;;;;5012938;28;19945;-77
2023/06/26 10:48:02;;;;;;;;;;;24.10;99.90;;;;;;5017789;28;19945;-67
2023/06/26 10:50:30;;;;;;;;;;;24.20;99.90;;;;;;5017233;28;19905;-65
2023/06/26 10:53:05;;;;;;;;;;;24.20;99.90;;;;;;5017529;28;19905;-65
2023/06/26 10:55:30;;;;;;;;;;;24.10;99.90;;;;;;5014913;28;19906;-80
2023/06/26 10:57:57;;;;;;;;;;;24.10;99.90;;;;;;5015567;28;19944;-66
2023/06/26 11:00:22;;;;;;;;;;;23.90;99.90;;;;;;5016463;28;20296;-66
2023/06/26 11:02:51;;;;;;;;;;;23.60;99.90;;;;;;4993277;28;19917;-66
2023/06/26 11:05:43;;;;;;;;;;;23.50;99.90;;;;;;5017029;28;19913;-82
2023/06/26 11:08:11;;;;;;;;;;;23.60;99.90;;;;;;5013896;28;20004;-66
2023/06/26 11:10:49;;;;;;;;;;;23.80;99.90;;;;;;5016733;28;20296;-83
2023/06/26 11:13:16;;;;;;;;;;;23.90;99.90;;;;;;5017249;28;19913;-65
2023/06/26 11:15:43;;;;;;;;;;;24.00;99.90;;;;;;5017226;28;19909;-66
2023/06/26 11:18:08;;;;;;;;;;;24.10;99.90;;;;;;5004539;28;19917;-67
2023/06/26 11:20:34;;;;;;;;;;;24.40;99.90;;;;;;4986537;28;20255;-66
2023/06/26 11:22:59;;;;;;;;;;;24.30;99.90;;;;;;5018393;28;19920;-65
2023/06/26 11:25:25;;;;;;;;;;;23.90;99.90;;;;;;5016828;28;19928;-66
2023/06/26 11:27:53;;;;;;;;;;;23.90;99.90;;;;;;4999193;28;20360;-66
2023/06/26 11:30:25;;;;;;;;;;;24.10;99.90;;;;;;5016639;28;20308;-67
2023/06/26 11:32:51;;;;;;;;;;;24.10;99.90;;;;;;5011401;28;20257;-67
2023/06/26 11:35:29;;;;;;;;;;;24.00;99.90;;;;;;5015819;28;19910;-86
2023/06/26 11:38:04;;;;;;;;;;;23.50;98.70;;;;;;5016213;28;20209;-66
2023/06/26 11:40:34;;;;;;;;;;;23.20;99.30;;;;;;5015182;28;19906;-81
2023/06/26 11:43:00;;;;;;;;;;;23.20;99.90;;;;;;4998909;28;19909;-66
2023/06/26 11:45:29;;;;;;;;;;;23.40;99.90;;;;;;5016117;28;20008;-86
2023/06/26 11:47:58;;;;;;;;;;;23.50;99.90;;;;;;5016480;28;19905;-81
2023/06/26 11:50:24;;;;;;;;;;;23.60;99.90;;;;;;5016147;28;19963;-66
2023/06/26 11:52:54;;;;;;;;;;;23.70;99.90;;;;;;5009060;28;19959;-65
2023/06/26 11:55:20;;;;;;;;;;;23.70;99.90;;;;;;5017369;28;20216;-65
2023/06/26 11:57:53;;;;;;;;;;;23.30;99.90;;;;;;5100344;27;20319;-67
2023/06/26 12:00:22;;;;;;;;;;;23.00;99.60;;;;;;5091948;28;19916;-66
2023/06/26 12:02:48;;;;;;;;;;;22.70;99.90;;;;;;5092593;28;19916;-67
2023/06/26 12:05:14;;;;;;;;;;;22.80;99.90;;;;;;5092689;28;19908;-83
2023/06/26 12:07:41;;;;;;;;;;;23.00;99.90;;;;;;5092600;28;19914;-68
2023/06/26 12:10:07;;;;;;;;;;;23.30;99.90;;;;;;5085669;28;19909;-66
2023/06/26 12:12:33;;;;;;;;;;;23.50;99.90;;;;;;5089641;28;20253;-81
2023/06/26 12:14:59;;;;;;;;;;;23.60;99.90;;;;;;5092333;28;19915;-68
2023/06/26 12:17:25;;;;;;;;;;;23.60;99.90;;;;;;5074383;28;19931;-67
2023/06/26 12:19:51;;;;;;;;;;;23.40;99.90;;;;;;5091740;28;19990;-67
2023/06/26 12:22:17;;;;;;;;;;;23.10;99.90;;;;;;5092045;28;19912;-67
2023/06/26 12:24:43;;;;;;;;;;;22.90;99.90;;;;;;5091322;28;20261;-67
2023/06/26 12:27:10;;;;;;;;;;;22.80;99.90;;;;;;5090751;28;20211;-67
2023/06/26 12:29:36;;;;;;;;;;;22.60;99.90;;;;;;5091194;28;19913;-67
2023/06/26 12:32:02;;;;;;;;;;;22.60;99.90;;;;;;5090797;28;19920;-66
2023/06/26 12:34:32;;;;;;;;;;;22.60;99.90;;;;;;5090494;28;19912;-67
2023/06/26 12:37:05;;;;;;;;;;;22.60;99.90;;;;;;5091738;28;19922;-66
2023/06/26 12:39:44;;;;;;;;;;;22.70;99.90;;;;;;5089021;28;20312;-67
2023/06/26 12:42:13;;;;;;;;;;;22.90;99.90;;;;;;5089795;28;20025;-68
2023/06/26 12:44:39;;;;;;;;;;;23.00;99.90;;;;;;5091250;28;19940;-67
2023/06/26 12:47:06;;;;;;;;;;;23.00;99.90;;;;;;5091728;28;19951;-67
2023/06/26 12:49:32;;;;;;;;;;;23.10;99.90;;;;;;5091938;28;19912;-66
2023/06/26 12:51:58;;;;;;;;;;;22.80;99.90;;;;;;5091217;28;19912;-66
2023/06/26 12:54:24;;;;;;;;;;;22.10;99.90;;;;;;5091935;28;20024;-67
2023/06/26 12:56:50;;;;;;;;;;;22.10;99.90;;;;;;5091246;28;20239;-66
2023/06/26 12:59:16;;;;;;;;;;;22.30;99.90;;;;;;5091792;28;19912;-66
2023/06/26 13:01:41;;;;;;;;;;;22.40;99.90;;;;;;5091285;28;19912;-87
2023/06/26 13:04:08;;;;;;;;;;;22.30;99.90;;;;;;5091664;28;19909;-66
2023/06/26 13:06:34;;;;;;;;;;;22.40;99.90;;;;;;5091161;28;19909;-89
2023/06/26 13:08:59;;;;;;;;;;;22.50;99.90;;;;;;5079848;28;20253;-66
2023/06/26 13:11:25;;;;;;;;;;;22.70;99.90;;;;;;5077662;28;19915;-69
2023/06/26 13:13:50;;;;;;;;;;;22.80;99.90;;;;;;5076699;28;20273;-83
2023/06/26 13:16:16;;;;;;;;;;;23.00;99.90;;;;;;5047582;28;20314;-67
2023/06/26 13:18:41;;;;;;;;;;;23.30;99.90;;;;;;5076021;28;19995;-80
2023/06/26 13:21:07;;;;;;;;;;;23.50;99.90;;;;;;5072406;28;20059;-68
2023/06/26 13:23:32;;;;;;;;;;;23.80;99.90;;;;;;5059897;28;19947;-84
2023/06/26 13:25:58;;;;;;;;;;;23.70;99.90;;;;;;5077682;28;19916;-66
2023/06/26 13:28:23;;;;;;;;;;;23.90;99.90;;;;;;5077433;28;19920;-94
2023/06/26 13:30:49;;;;;;;;;;;24.00;99.90;;;;;;5077286;28;19912;-66
2023/06/26 13:33:15;;;;;;;;;;;24.10;99.90;;;;;;5077441;28;19919;-65
2023/06/26 13:35:41;;;;;;;;;;;23.60;99.00;;;;;;5076949;28;19966;-67
2023/06/26 13:38:06;;;;;;;;;;;23.50;99.90;;;;;;5076790;28;19912;-66
2023/06/26 13:40:32;;;;;;;;;;;23.60;99.70;;;;;;5051089;28;19908;-73
2023/06/26 13:42:57;;;;;;;;;;;23.50;99.90;;;;;;5077387;28;19908;-67
2023/06/26 13:45:25;;;;;;;;;;;23.70;99.50;;;;;;5077414;28;19916;-66
2023/06/26 13:47:50;;;;;;;;;;;23.80;99.60;;;;;;5059831;28;19913;-88
2023/06/26 13:50:16;;;;;;;;;;;24.00;99.60;;;;;;5077001;28;19913;-67
2023/06/26 13:52:41;;;;;;;;;;;24.00;99.50;;;;;;5072519;28;19912;-87
2023/06/26 13:55:07;;;;;;;;;;;23.90;99.20;;;;;;5077017;28;19955;-81
2023/06/26 13:57:33;;;;;;;;;;;24.10;99.90;;;;;;5055140;28;20316;-67
2023/06/26 13:59:59;;;;;;;;;;;24.10;99.90;;;;;;5055956;28;19966;-68
2023/06/26 14:02:24;;;;;;;;;;;24.10;99.20;;;;;;5053768;28;19913;-65
2023/06/26 14:04:50;;;;;;;;;;;23.60;99.20;;;;;;5056031;28;19917;-69
2023/06/26 14:07:15;;;;;;;;;;;22.80;99.90;;;;;;5056915;28;19971;-72
2023/06/26 14:09:41;;;;;;;;;;;22.50;99.90;;;;;;5049116;28;20231;-67
2023/06/26 14:12:07;;;;;;;;;;;22.70;99.90;;;;;;5056451;28;19909;-67